| Record Date MM/DD/YYYY | Record Julian Date NNN day of the year | Air Temperature Max (Degrees Fahrenheit F) | Time Max Air Temperature HH:MM:SS This is the time of max air temperature standard time. | Air Temperature Min (Degrees Fahrenheit F) | Time Min Air Temperature HH:MM:SS This is the time of min air temperature standard time. | Air Temperature Observed (Degrees Fahrenheit F) This is an instantaneous reading for air temperature at 7:00:00 standard time. | Relative Humidity Max (Percent) | Time Max Relative Humidity HH:MM:SS This is the time of max relative humidity standard time. | Relative Humidity Min (Percent) | Time Min Relative Humidity HH:MM:SS This is the time of min relative humidity standard time. | Relative Humidity Observed (Percent) This is an instantaneous reading at 7:00:00 standard time. | Precipitation (Inches n.nn) total rain fall that occurred for the day. | Pan Evaporation (Inches n.nn) total evaporation that occured for the day. | Wind Run (Miles) Wind travel for the day. | Wind Speed (Miles Per Hour) Resultant / Average speed for the day. | Wind Direction (Degrees) Resultant Direction for the day | Solar Radiation (Langley's) that occurred for the day. | Soil Temperature Max at 2 inch depth (Degrees Fahrenheit F) that occurred during the day. | Time Max Soil temperature at 2 inches HH:MM:SS This is the time of max 2 inch soil temperature standard time. | Soil Temperature Min at 2 inch depth (Degrees Fahrenheit F) that occurred during the day. | Time Min Soil temperature at 2 inches HH:MM:SS This is the time of min 2 inch soil temperature standard time. | Soil Temperature Observed at 2 inch depth (Degrees Fahrenheit F) This is an instantaneous reading 2 inch soil temperature at 7:00:00 standard time. | Soil Temperature Max at 4 inch depth (Degrees Fahrenheit F) that occurred during the day. | Time Max Soil temperature at 4 inches HH:MM:SS This is the time of max 4 inch soil temperature standard time. | Soil Temperature Min at 4 inch depth (Degrees Fahrenheit F) that occurred during the day. | Time Min Soil temperature at 4 inches HH:MM:SS This is the time of min 4 inch soil temperature standard time. | Soil Temperature Observed at 4 inch depth (Degrees Fahrenheit F) This is an instantaneous reading 4 inch soil temperature at 7:00:00 standard time. | DD50 Degree Days 50 Fahrenheit. | Adjusted DD50 Degree Days 50 Fahrenheit adjusted for latitude. | DD60 Degree Days 60 Fahrenheit. |
|---|---|---|---|---|---|---|---|---|---|---|---|---|---|---|---|---|---|---|---|---|---|---|---|---|---|---|---|---|---|---|
| 04/09/2026 | 99 | 78 | 15:32:00 | 51 | 4:23:04 | 58 | 74 | 4:26:03 | 37 | 14:50:00 | 59 | 0 | 126 | 5 | 128 | 598 | 81 | 15:04:04 | 60 | 6:50:03 | 60 | 74 | 15:56:01 | 62 | 8:23:01 | 62 | 14.5 | 15.66 | 4.5 | |
| 04/10/2026 | 100 | 81 | 14:59:05 | 48 | 4:48:00 | 58 | 90 | 5:04:00 | 40 | 15:00:04 | 74 | 0 | 63 | 3 | 155 | 550 | 81 | 15:07:01 | 60 | 6:38:04 | 61 | 75 | 16:19:03 | 63 | 7:55:01 | 63 | 14.5 | 15.7 | 4.5 | |
| 04/11/2026 | 101 | 84 | 15:22:04 | 50 | 5:40:02 | 62 | 93 | 5:43:02 | 31 | 15:22:05 | 79 | 0 | 46 | 2 | 150 | 574 | 84 | 14:46:04 | 62 | 6:42:00 | 62 | 77 | 16:11:05 | 64 | 7:51:00 | 65 | 17 | 18.23 | 7 | |
| 04/12/2026 | 102 | 87 | 13:19:05 | 52 | 4:59:04 | 64 | 90 | 5:38:05 | 34 | 14:46:01 | 73 | 0 | 145 | 6 | 204 | 574 | 82 | 15:13:01 | 63 | 6:34:02 | 64 | 76 | 16:14:05 | 66 | 7:54:05 | 66 | 19.5 | 20.76 | 9.5 | |
| 04/13/2026 | 103 | 85 | 15:23:04 | 59 | 5:43:03 | 63 | 86 | 5:47:02 | 40 | 14:08:03 | 83 | 0 | 150 | 6 | 200 | 526 | 83 | 14:23:05 | 66 | 6:42:00 | 66 | 76 | 16:02:03 | 68 | 7:35:03 | 68 | 22 | 23.29 | 12 | |
| 04/14/2026 | 104 | 86 | 14:42:00 | 56 | 4:54:03 | 64 | 93 | 5:46:03 | 37 | 16:53:05 | 87 | 0 | 135 | 6 | 201 | 526 | 84 | 15:08:01 | 66 | 6:30:00 | 66 | 78 | 16:26:01 | 68 | 7:46:00 | 68 | 21 | 22.32 | 11 | |
| 04/15/2026 | 105 | 85 | 15:35:05 | 56 | 5:50:01 | 65 | 91 | 5:34:00 | 35 | 12:19:01 | 82 | 0 | 161 | 7 | 212 | 574 | 83 | 14:11:05 | 66 | 6:37:03 | 66 | 77 | 15:51:02 | 68 | 7:43:04 | 68 | 20.5 | 21.85 | 10.5 | |
| 04/16/2026 | 106 | 88 | 15:06:00 | 62 | 23:59:05 | 70 | 86 | 5:57:00 | 37 | 14:49:02 | 81 | 0 | 143 | 6 | 233 | 526 | 86 | 14:08:01 | 70 | 6:40:02 | 70 | 79 | 16:49:05 | 71 | 7:25:04 | 71 | 25 | 26.38 | 15 | |
| 04/17/2026 | 107 | 90 | 14:45:01 | 58 | 5:28:04 | 68 | 92 | 5:20:01 | 39 | 14:45:02 | 79 | 0 | 107 | 5 | 199 | 550 | 87 | 14:57:00 | 69 | 6:36:04 | 69 | 80 | 16:19:01 | 70 | 7:46:04 | 70 | 24 | 25.41 | 14 | |
| 04/18/2026 | 108 | 84 | 13:30:00 | 51 | 23:51:02 | 68 | 90 | 20:14:01 | 53 | 13:53:01 | 80 | 0.04 | 178 | 7 | 265 | 335 | 82 | 14:10:00 | 69 | 23:58:04 | 71 | 77 | 15:36:03 | 72 | 7:47:05 | 72 | 17.5 | 18.93 | 7.5 | |
| 04/19/2026 | 109 | 69 | 13:56:02 | 46 | 23:41:05 | 49 | 92 | 6:31:05 | 29 | 13:31:04 | 91 | 0.04 | 171 | 7 | 14 | 526 | 77 | 14:53:05 | 63 | 23:59:01 | 64 | 73 | 16:34:04 | 67 | 9:03:04 | 67 | 7.5 | 8.96 | 0 | |
| 04/20/2026 | 110 | 78 | 13:43:01 | 40 | 5:34:00 | 54 | 95 | 5:55:02 | 25 | 13:43:01 | 78 | 0 | 54 | 2 | 123 | 621 | 83 | 14:47:01 | 59 | 6:30:05 | 59 | 76 | 16:42:02 | 63 | 7:42:04 | 63 | 9 | 10.49 | 0 | |
| 04/21/2026 | 111 | 83 | 14:14:00 | 44 | 4:37:01 | 57 | 93 | 4:57:02 | 24 | 12:01:03 | 80 | 0 | 82 | 3 | 211 | 502 | 81 | 14:50:00 | 61 | 6:29:02 | 62 | 75 | 16:17:05 | 65 | 7:44:04 | 65 | 13.5 | 15.02 | 3.5 | |
| 04/22/2026 | 112 | 84 | 13:42:01 | 51 | 3:59:01 | 59 | 86 | 3:12:01 | 28 | 11:42:01 | 77 | 0 | 114 | 5 | 177 | 526 | 85 | 14:47:00 | 64 | 5:31:04 | 65 | 78 | 16:30:01 | 67 | 7:31:02 | 67 | 17.5 | 19.05 | 7.5 | |
| 04/23/2026 | 113 | 85 | 14:14:01 | 56 | 3:23:05 | 63 | 89 | 5:10:05 | 30 | 14:29:01 | 83 | 0 | 137 | 6 | 181 | 598 | 87 | 14:49:02 | 66 | 6:12:03 | 67 | 79 | 16:54:03 | 68 | 7:29:05 | 68 | 20.5 | 22.07 | 10.5 | |
| 04/24/2026 | 114 | 82 | 15:22:04 | 59 | 5:06:03 | 65 | 91 | 23:58:00 | 51 | 15:23:01 | 86 | 0.53 | 142 | 6 | 190 | 359 | 81 | 15:45:02 | 68 | 6:17:02 | 69 | 77 | 16:40:04 | 70 | 7:23:04 | 70 | 20.5 | 22.1 | 10.5 | |
| 04/25/2026 | 115 | 82 | 16:40:04 | 62 | 5:30:04 | 63 | 95 | 6:37:01 | 55 | 16:41:03 | 94 | 0.32 | 80 | 3 | 263 | 478 | 85 | 14:57:03 | 68 | 6:07:01 | 68 | 79 | 16:43:00 | 69 | 7:43:01 | 69 | 22 | 23.62 | 12 | |
| 04/26/2026 | 116 | 86 | 15:28:02 | 64 | 4:51:00 | 67 | 97 | 6:20:02 | 46 | 15:46:05 | 96 | 0 | 58 | 2 | 200 | 478 | 85 | 15:37:01 | 69 | 6:22:01 | 70 | 80 | 16:41:04 | 71 | 7:46:02 | 71 | 25 | 26.65 | 15 | |
| 04/27/2026 | 117 | 90 | 15:02:04 | 66 | 5:10:05 | 71 | 92 | 5:17:00 | 45 | 14:05:03 | 86 | 0 | 198 | 8 | 182 | 550 | 86 | 14:46:01 | 70 | 6:25:03 | 70 | 81 | 16:21:00 | 71 | 7:27:05 | 72 | 28 | 27.68 | 18 | |
| 04/28/2026 | 118 | 76 | 0:00:01 | 67 | 21:51:02 | 70 | 95 | 22:07:00 | 64 | 0:09:02 | 85 | 2.86 | 206 | 9 | 163 | 72 | 76 | 0:00:03 | 70 | 23:36:01 | 72 | 76 | 0:00:00 | 71 | 23:53:03 | 73 | 21.5 | 23.2 | 11.5 | |
| 04/29/2026 | 119 | 82 | 14:20:04 | 66 | 0:00:00 | 70 | 97 | 6:30:02 | 67 | 17:11:04 | 96 | 2.34 | 145 | 6 | 228 | 335 | 81 | 15:05:05 | 70 | 4:03:05 | 70 | 77 | 16:41:02 | 70 | 7:22:01 | 70 | 24 | 25.72 | 14 | |
| 04/30/2026 | 120 | 70 | 13:21:04 | 60 | 23:58:00 | 61 | 94 | 0:36:02 | 53 | 14:35:00 | 88 | 0.05 | 146 | 6 | 28 | 430 | 77 | 14:02:03 | 67 | 23:57:02 | 68 | 74 | 15:34:03 | 69 | 8:59:04 | 70 | 15 | 16.75 | 5 | |
| 05/01/2026 | 121 | 64 | 13:32:01 | 56 | 5:09:02 | 56 | 86 | 22:48:01 | 58 | 13:17:05 | 82 | 0 | 93 | 4 | 11 | 191 | 68 | 14:13:01 | 63 | 23:59:04 | 64 | 69 | 0:00:00 | 66 | 23:58:01 | 66 | 10 | 11.77 | 0 | |
| 05/02/2026 | 122 | 70 | 15:03:01 | 51 | 22:55:05 | 55 | 85 | 22:52:01 | 32 | 14:06:03 | 63 | 0 | 158 | 7 | 5 | 598 | 73 | 14:21:05 | 60 | 6:44:05 | 60 | 70 | 16:23:02 | 63 | 7:54:02 | 63 | 10.5 | 12.29 | 0.5 | |
| 05/03/2026 | 123 | 76 | 16:42:05 | 45 | 5:14:02 | 55 | 91 | 5:43:04 | 34 | 16:28:04 | 73 | 0 | 62 | 3 | 300 | 669 | 79 | 15:08:02 | 57 | 6:17:02 | 57 | 74 | 16:41:02 | 61 | 7:32:00 | 61 | 10.5 | 12.32 | 0.5 | |
| 05/04/2026 | 124 | 81 | 14:26:05 | 50 | 4:46:01 | 60 | 92 | 5:02:01 | 34 | 14:50:02 | 77 | 0 | 123 | 5 | 220 | 645 | 83 | 15:29:05 | 60 | 6:18:04 | 61 | 77 | 17:00:04 | 63 | 7:33:01 | 64 | 15.5 | 17.34 | 5.5 | |
| 05/05/2026 | 125 | 78 | 11:54:00 | 55 | 5:14:04 | 63 | 89 | 5:20:04 | 52 | 11:59:03 | 74 | 0 | 170 | 7 | 196 | 406 | 78 | 13:03:05 | 64 | 6:17:00 | 64 | 74 | 17:22:02 | 66 | 7:44:03 | 66 | 16.5 | 18.36 | 6.5 | |
| 05/06/2026 | 126 | 80 | 11:17:00 | 59 | 23:58:04 | 72 | 94 | 23:29:03 | 70 | 11:21:00 | 82 | 0.33 | 193 | 8 | 208 | 215 | 77 | 15:36:00 | 68 | 0:00:00 | 70 | 74 | 16:44:02 | 70 | 7:16:04 | 70 | 19.5 | 21.38 | 9.5 | |
| 05/07/2026 | 127 | 72 | 15:09:05 | 57 | 3:11:05 | 57 | 95 | 3:14:04 | 52 | 16:01:01 | 89 | 0.06 | 138 | 6 | 8 | 502 | 78 | 15:34:02 | 64 | 7:00:03 | 64 | 74 | 16:57:04 | 66 | 9:10:04 | 66 | 14.5 | 16.4 | 4.5 | |
| Average | 80.55 | 55.07 | 62.31 | 90.79 | 42.48 | 81.28 | 0.23 | 128.41 | 483.93 | 81.14 | 64.9 | 65.48 | 76.07 | 67.17 | 67.38 | 17.81 | 19.3 | 7.93 | ||||||||||||
| Total | 6.57 | 516.5 | 559.7 | 230 |